Time;durP1;ratioP1;P1;durP2;ratioP2;P2;SDS_P1;SDS_P2;PMS_P1;PMS_P2;Temp;Humidity;BMP_temperature;BMP_pressure;BME280_temperature;BME280_humidity;BME280_pressure;Samples;Min_cycle;Max_cycle;Signal;HPM_P1;HPM_P2
2021/12/20 00:01:08;;;;;;;24.77;4.47;;;;;;;;;;5052030;28;20221;-70
2021/12/20 00:03:34;;;;;;;25.25;4.35;;;;;;;;;;5030238;28;20087;-70
2021/12/20 00:06:00;;;;;;;20.05;4.93;;;;;;;;;;5029190;28;20072;-70
2021/12/20 00:08:27;;;;;;;17.25;4.22;;;;;;;;;;5032774;28;20410;-70
2021/12/20 00:10:53;;;;;;;20.25;5.00;;;6.70;99.90;;;;;;5051698;28;20041;-70
2021/12/20 00:13:19;;;;;;;14.85;4.05;;;;;;;;;;5045152;28;20773;-70
2021/12/20 00:15:45;;;;;;;16.95;4.65;;;6.60;99.90;;;;;;5032903;28;20041;-71
2021/12/20 00:18:11;;;;;;;20.73;4.30;;;;;;;;;;5033898;28;20570;-70
2021/12/20 00:20:37;;;;;;;19.58;5.07;;;;;;;;;;5033819;28;20045;-70
2021/12/20 00:23:04;;;;;;;21.92;3.85;;;;;;;;;;5015222;28;20143;-70
2021/12/20 00:25:31;;;;;;;15.85;3.70;;;6.60;99.90;;;;;;5022661;28;20053;-70
2021/12/20 00:27:56;;;;;;;26.17;4.50;;;6.60;99.90;;;;;;5042140;28;20060;-70
2021/12/20 00:30:22;;;;;;;15.48;4.90;;;6.70;99.90;;;;;;5026352;28;20037;-70
2021/12/20 00:32:48;;;;;;;19.15;5.88;;;;;;;;;;5033975;28;20045;-70
2021/12/20 00:35:17;;;;;;;15.38;3.28;;;;;;;;;;5030315;28;20040;-70
2021/12/20 00:40:28;;;;;;;20.73;5.30;;;;;;;;;;5041719;28;20514;-70
2021/12/20 00:42:57;;;;;;;17.00;3.60;;;7.20;99.90;;;;;;5027453;28;20124;-70
2021/12/20 00:45:25;;;;;;;17.45;4.00;;;6.80;99.90;;;;;;5015994;28;20060;-70
2021/12/20 00:47:51;;;;;;;22.83;3.90;;;;;;;;;;5050993;28;20040;-70
2021/12/20 00:50:18;;;;;;;14.82;4.03;;;;;;;;;;5028090;28;20037;-70
2021/12/20 00:52:45;;;;;;;18.98;4.05;;;;;;;;;;5032687;28;20049;-71
2021/12/20 00:55:12;;;;;;;16.88;3.55;;;;;;;;;;5027237;28;20483;-71
2021/12/20 00:57:38;;;;;;;21.42;4.53;;;6.70;99.90;;;;;;5044510;28;20049;-70
2021/12/20 01:00:07;;;;;;;15.07;3.95;;;;;;;;;;5027049;28;20041;-71
2021/12/20 01:02:33;;;;;;;20.00;4.03;;;6.50;99.90;;;;;;5024418;28;20120;-70
2021/12/20 01:04:59;;;;;;;15.65;3.85;;;;;;;;;;5022060;28;20111;-71
2021/12/20 01:07:25;;;;;;;22.70;5.03;;;;;;;;;;5032942;28;20106;-71
2021/12/20 01:09:53;;;;;;;21.15;4.32;;;6.70;99.90;;;;;;5024566;28;20049;-70
2021/12/20 01:12:20;;;;;;;15.45;6.03;;;;;;;;;;5030631;28;20071;-71
2021/12/20 01:14:47;;;;;;;15.25;3.53;;;;;;;;;;5050042;28;20077;-70
2021/12/20 01:17:13;;;;;;;15.30;3.90;;;;;;;;;;5026680;28;20034;-71
2021/12/20 01:19:39;;;;;;;16.75;4.45;;;;;;;;;;5049966;28;20091;-70
2021/12/20 01:22:05;;;;;;;18.45;4.45;;;;;;;;;;5050807;28;20044;-70
2021/12/20 01:24:32;;;;;;;13.60;3.70;;;;;;;;;;5043296;28;20500;-70
2021/12/20 01:26:58;;;;;;;17.50;3.88;;;;;;;;;;5024591;28;20041;-70
2021/12/20 01:29:24;;;;;;;15.45;3.90;;;;;;;;;;5031657;28;20128;-70
2021/12/20 01:31:50;;;;;;;19.92;4.15;;;;;;;;;;5038812;28;20498;-70
2021/12/20 01:34:16;;;;;;;17.30;3.50;;;;;;;;;;5030830;28;20080;-70
2021/12/20 01:36:42;;;;;;;17.27;3.90;;;;;;;;;;5020615;28;20041;-70
2021/12/20 01:39:09;;;;;;;17.33;3.47;;;;;;;;;;5029743;28;20210;-70
2021/12/20 01:41:39;;;;;;;18.65;3.90;;;;;;;;;;5028238;28;20037;-70
2021/12/20 01:44:05;;;;;;;14.15;2.95;;;;;;;;;;5039752;28;20049;-70
2021/12/20 01:46:32;;;;;;;13.15;2.95;;;;;;;;;;5015065;28;20451;-70
2021/12/20 01:48:59;;;;;;;17.27;3.67;;;;;;;;;;5013440;28;20103;-70
2021/12/20 01:51:44;;;;;;;16.73;3.97;;;;;;;;;;5049790;28;20500;-70
2021/12/20 01:54:10;;;;;;;16.40;4.50;;;;;;;;;;5026022;28;20098;-70
2021/12/20 01:56:39;;;;;;;16.23;3.35;;;;;;;;;;5028014;28;20423;-70
2021/12/20 01:59:06;;;;;;;17.58;4.68;;;;;;;;;;5032143;28;20060;-70
2021/12/20 02:01:32;;;;;;;14.52;2.97;;;;;;;;;;5046052;28;20045;-70
2021/12/20 02:04:01;;;;;;;12.80;2.72;;;;;;;;;;5040079;28;20046;-70
2021/12/20 02:08:55;;;;;;;17.65;3.30;;;;;;;;;;5047608;28;20045;-70
2021/12/20 02:11:21;;;;;;;16.92;3.90;;;6.60;99.90;;;;;;5050234;28;20073;-70
2021/12/20 02:13:48;;;;;;;15.52;3.00;;;;;;;;;;5022391;28;20447;-70
2021/12/20 02:16:14;;;;;;;15.90;3.25;;;;;;;;;;5031671;28;20403;-70
2021/12/20 02:18:39;;;;;;;11.25;3.08;;;6.60;99.90;;;;;;5047464;28;20053;-70
2021/12/20 02:21:05;;;;;;;9.57;2.85;;;;;;;;;;5031925;28;20051;-70
2021/12/20 02:23:32;;;;;;;16.20;3.13;;;;;;;;;;5017646;28;20036;-70
2021/12/20 02:25:59;;;;;;;18.67;3.20;;;;;;;;;;5046926;28;20072;-70
2021/12/20 02:28:26;;;;;;;14.38;2.42;;;;;;;;;;5042267;28;20046;-70
2021/12/20 02:38:46;;;;;;;15.68;3.85;;;;;;;;;;5053893;28;20120;-70
2021/12/20 02:41:18;;;;;;;9.95;2.38;;;;;;;;;;5049776;22;20040;-56
2021/12/20 02:43:53;;;;;;;14.63;2.97;;;;;;;;;;5062020;22;20048;-70
2021/12/20 02:48:59;;;;;;;11.80;2.47;;;;;;;;;;5035758;28;20064;-70
2021/12/20 02:51:29;;;;;;;15.45;2.92;;;;;;;;;;5053100;28;20091;-70
2021/12/20 02:53:56;;;;;;;10.43;2.33;;;;;;;;;;5030037;28;20124;-70
2021/12/20 02:56:22;;;;;;;14.43;2.53;;;;;;;;;;5022483;28;20053;-71
2021/12/20 02:58:48;;;;;;;12.07;2.58;;;;;;;;;;5034951;28;20576;-70
2021/12/20 03:01:14;;;;;;;12.90;1.90;;;;;;;;;;5015801;28;20076;-70
2021/12/20 03:03:40;;;;;;;19.45;3.08;;;;;;;;;;5046996;28;20068;-70
2021/12/20 03:06:10;;;;;;;11.38;2.30;;;7.10;99.90;;;;;;5052286;28;20052;-70
2021/12/20 03:08:37;;;;;;;11.75;2.38;;;;;;;;;;5043896;28;20029;-70
2021/12/20 03:11:03;;;;;;;11.80;3.40;;;;;;;;;;5053253;28;20041;-70
2021/12/20 03:13:29;;;;;;;12.40;2.30;;;;;;;;;;5048545;28;20460;-70
2021/12/20 03:15:55;;;;;;;8.70;2.05;;;;;;;;;;5051900;28;20297;-70
2021/12/20 03:18:21;;;;;;;7.32;2.13;;;;;;;;;;5032545;28;20519;-70
2021/12/20 03:20:46;;;;;;;12.10;2.55;;;6.50;99.90;;;;;;5035093;28;20045;-70
2021/12/20 03:23:12;;;;;;;10.38;3.03;;;;;;;;;;5028094;28;20127;-70
2021/12/20 03:25:38;;;;;;;10.82;2.72;;;6.60;99.90;;;;;;5046357;28;20049;-70
2021/12/20 03:28:04;;;;;;;10.75;2.30;;;;;;;;;;5032740;28;20124;-70
2021/12/20 03:30:30;;;;;;;10.85;2.28;;;;;;;;;;5050748;28;20435;-70
2021/12/20 03:32:56;;;;;;;9.77;1.70;;;;;;;;;;5034252;28;20582;-70
2021/12/20 03:35:21;;;;;;;7.18;1.80;;;6.30;99.90;;;;;;5031868;28;20124;-70
2021/12/20 03:37:47;;;;;;;9.48;1.95;;;6.30;99.90;;;;;;5033102;28;20131;-70
2021/12/20 03:40:13;;;;;;;12.15;2.30;;;6.20;99.90;;;;;;5050129;28;20045;-70
2021/12/20 03:42:44;;;;;;;10.50;3.65;;;;;;;;;;5032162;28;20513;-70
2021/12/20 03:45:13;;;;;;;8.52;1.50;;;;;;;;;;5040255;28;20450;-70
2021/12/20 03:47:40;;;;;;;7.97;1.80;;;;;;;;;;5034236;28;20448;-70
2021/12/20 03:50:06;;;;;;;7.03;1.63;;;6.10;99.90;;;;;;5032418;28;20059;-70
2021/12/20 03:52:32;;;;;;;9.73;1.90;;;;;;;;;;5045760;28;20044;-70
2021/12/20 03:54:59;;;;;;;9.00;2.30;;;;;;;;;;5022938;28;20515;-71
2021/12/20 03:57:25;;;;;;;8.43;1.90;;;5.80;99.90;;;;;;5048450;28;20095;-71
2021/12/20 03:59:53;;;;;;;6.93;2.55;;;;;;;;;;5033054;28;20044;-71
2021/12/20 04:02:21;;;;;;;8.00;2.15;;;;;;;;;;5032208;28;20045;-71
2021/12/20 04:04:47;;;;;;;6.72;1.60;;;5.80;99.90;;;;;;5049741;28;20049;-71
2021/12/20 04:07:13;;;;;;;8.75;2.15;;;5.70;99.90;;;;;;5031777;28;20406;-71
2021/12/20 04:09:39;;;;;;;9.27;1.40;;;;;;;;;;5052020;28;20043;-71
2021/12/20 04:12:05;;;;;;;8.32;1.67;;;;;;;;;;5034024;28;20047;-71
2021/12/20 04:14:31;;;;;;;4.97;1.50;;;;;;;;;;5040450;28;20429;-71
2021/12/20 04:16:57;;;;;;;8.30;1.63;;;;;;;;;;5047052;28;20098;-71
2021/12/20 04:19:23;;;;;;;7.75;1.50;;;;;;;;;;5048094;28;20044;-71
2021/12/20 04:21:49;;;;;;;11.18;2.08;;;;;;;;;;5027704;28;20037;-71
2021/12/20 04:24:15;;;;;;;9.40;2.05;;;;;;;;;;5049334;28;20052;-71
2021/12/20 04:26:41;;;;;;;6.43;1.45;;;;;;;;;;5028734;28;20131;-71
2021/12/20 04:29:07;;;;;;;7.43;1.70;;;5.20;99.90;;;;;;5051102;28;20505;-71
2021/12/20 04:31:35;;;;;;;10.65;1.80;;;;;;;;;;5029357;28;20041;-71
2021/12/20 04:34:01;;;;;;;19.23;2.30;;;;;;;;;;5031153;28;20044;-71
2021/12/20 04:36:28;;;;;;;14.05;2.90;;;5.20;99.90;;;;;;5032507;28;20407;-71
2021/12/20 04:38:54;;;;;;;13.00;2.30;;;;;;;;;;5033046;28;20037;-71
2021/12/20 04:41:20;;;;;;;7.80;1.88;;;;;;;;;;5049473;28;20552;-70
2021/12/20 04:43:46;;;;;;;8.18;1.63;;;;;;;;;;5025781;28;20044;-71
2021/12/20 04:46:12;;;;;;;10.40;2.03;;;;;;;;;;5040177;28;20096;-71
2021/12/20 04:48:38;;;;;;;11.93;1.98;;;5.10;99.90;;;;;;5044179;28;20078;-70
2021/12/20 04:51:04;;;;;;;10.93;2.20;;;5.00;99.90;;;;;;5016240;28;20049;-71
2021/12/20 04:53:30;;;;;;;10.82;2.88;;;;;;;;;;5030937;28;20045;-70
2021/12/20 04:55:56;;;;;;;8.38;2.45;;;;;;;;;;5032030;28;20052;-71
2021/12/20 04:58:22;;;;;;;7.50;2.17;;;;;;;;;;5041669;28;20126;-71
2021/12/20 05:00:48;;;;;;;8.20;1.77;;;;;;;;;;5025781;28;20037;-71
2021/12/20 05:03:14;;;;;;;9.98;1.63;;;;;;;;;;5026887;28;20068;-71
2021/12/20 05:05:40;;;;;;;7.57;1.80;;;;;;;;;;5025621;28;20490;-71
2021/12/20 05:08:06;;;;;;;8.38;1.83;;;;;;;;;;5032171;28;20745;-71
2021/12/20 05:10:34;;;;;;;11.85;1.90;;;;;;;;;;5050473;28;20049;-71
2021/12/20 05:13:05;;;;;;;9.52;1.70;;;;;;;;;;5032242;28;20045;-71
2021/12/20 05:15:31;;;;;;;6.22;1.73;;;;;;;;;;5028907;28;20037;-71
2021/12/20 05:17:58;;;;;;;7.65;1.80;;;4.50;99.90;;;;;;5042644;28;20052;-71
2021/12/20 05:20:24;;;;;;;10.55;1.80;;;5.00;99.90;;;;;;5048101;28;20033;-71
2021/12/20 05:22:51;;;;;;;12.20;1.83;;;;;;;;;;5032702;28;20032;-70
2021/12/20 05:25:17;;;;;;;7.07;2.08;;;;;;;;;;5024167;28;20072;-71
2021/12/20 05:27:43;;;;;;;10.40;1.80;;;4.90;99.90;;;;;;5029169;28;20080;-71
2021/12/20 05:30:10;;;;;;;9.32;2.22;;;;;;;;;;5047278;28;20041;-71
2021/12/20 05:32:36;;;;;;;6.15;1.65;;;;;;;;;;5045634;28;20442;-71
2021/12/20 05:35:03;;;;;;;9.80;2.17;;;;;;;;;;5029124;28;20037;-71
2021/12/20 05:37:29;;;;;;;7.25;1.58;;;;;;;;;;5031894;28;20041;-71
2021/12/20 05:39:55;;;;;;;10.43;2.67;;;;;;;;;;5050312;28;20037;-71
2021/12/20 05:42:21;;;;;;;11.05;3.03;;;;;;;;;;5049957;28;20041;-71
2021/12/20 05:44:50;;;;;;;7.88;1.85;;;;;;;;;;5026392;28;20037;-71
2021/12/20 05:47:16;;;;;;;8.93;1.67;;;4.90;99.90;;;;;;5028783;28;20427;-70
2021/12/20 05:49:42;;;;;;;8.80;2.35;;;;;;;;;;5033829;28;20044;-71
2021/12/20 05:52:08;;;;;;;12.48;1.80;;;5.00;99.90;;;;;;5051999;28;20617;-71
2021/12/20 05:54:34;;;;;;;7.82;1.92;;;;;;;;;;5029863;28;20033;-71
2021/12/20 05:57:00;;;;;;;14.52;1.75;;;;;;;;;;5047736;28;20080;-71
2021/12/20 05:59:26;;;;;;;8.77;2.85;;;;;;;;;;5049480;28;20614;-71
2021/12/20 06:01:52;;;;;;;8.25;2.20;;;;;;;;;;5043735;28;20131;-71
2021/12/20 06:04:17;;;;;;;7.40;1.70;;;5.20;99.90;;;;;;5012611;28;20128;-71
2021/12/20 06:06:43;;;;;;;10.45;2.17;;;;;;;;;;5032057;28;20041;-70
2021/12/20 06:09:09;;;;;;;11.18;2.47;;;5.40;99.90;;;;;;5032276;28;20072;-71
2021/12/20 06:11:35;;;;;;;8.15;2.88;;;;;;;;;;5034039;28;20083;-72
2021/12/20 06:14:01;;;;;;;7.25;1.58;;;;;;;;;;5050154;28;20110;-71
2021/12/20 06:16:27;;;;;;;6.53;1.55;;;;;;;;;;5028574;28;20083;-71
2021/12/20 06:18:53;;;;;;;11.10;2.00;;;;;;;;;;5035641;28;20652;-71
2021/12/20 06:21:19;;;;;;;9.70;1.85;;;;;;;;;;5036386;28;20143;-71
2021/12/20 06:23:46;;;;;;;6.97;1.58;;;;;;;;;;5023222;28;20052;-71
2021/12/20 06:26:12;;;;;;;9.07;1.83;;;;;;;;;;4991234;28;20049;-71
2021/12/20 06:28:38;;;;;;;8.18;2.42;;;;;;;;;;5003512;28;20060;-71
2021/12/20 06:31:04;;;;;;;6.18;1.48;;;;;;;;;;5011257;28;20041;-71
2021/12/20 06:33:29;;;;;;;7.68;1.70;;;;;;;;;;5011061;28;20072;-71
2021/12/20 06:35:55;;;;;;;9.88;1.98;;;5.50;99.90;;;;;;5033510;28;20048;-71
2021/12/20 06:38:22;;;;;;;6.20;1.70;;;;;;;;;;5034605;28;20396;-71
2021/12/20 06:40:50;;;;;;;9.80;1.75;;;5.70;99.90;;;;;;5034858;28;20384;-71
2021/12/20 06:43:17;;;;;;;9.65;1.83;;;;;;;;;;5030646;28;20484;-71
2021/12/20 06:45:43;;;;;;;8.48;2.05;;;;;;;;;;5029438;28;20037;-71
2021/12/20 06:48:09;;;;;;;10.02;2.13;;;;;;;;;;5053557;28;20041;-71
2021/12/20 06:50:35;;;;;;;13.02;2.22;;;;;;;;;;5052948;28;20048;-71
2021/12/20 06:53:01;;;;;;;7.45;1.85;;;;;;;;;;5052163;28;20037;-71
2021/12/20 06:55:27;;;;;;;7.72;1.63;;;5.70;99.90;;;;;;5046146;28;20125;-71
2021/12/20 06:57:53;;;;;;;10.13;2.50;;;;;;;;;;5024705;28;20040;-71
2021/12/20 07:00:18;;;;;;;8.35;2.40;;;5.70;99.90;;;;;;5012626;28;20041;-71
2021/12/20 07:02:44;;;;;;;8.95;2.25;;;;;;;;;;5033604;28;20406;-71
2021/12/20 07:05:10;;;;;;;9.23;1.88;;;;;;;;;;5051762;28;20102;-71
2021/12/20 07:07:37;;;;;;;8.93;2.58;;;5.50;99.90;;;;;;5034940;28;20056;-71
2021/12/20 07:10:05;;;;;;;12.43;3.83;;;;;;;;;;5031735;28;20055;-71
2021/12/20 07:12:33;;;;;;;6.70;1.77;;;;;;;;;;5046196;28;20041;-71
2021/12/20 07:15:00;;;;;;;8.82;2.35;;;;;;;;;;5044330;28;20064;-71
2021/12/20 07:17:26;;;;;;;8.40;1.88;;;;;;;;;;4998845;28;20050;-71
2021/12/20 07:19:52;;;;;;;9.35;3.15;;;;;;;;;;4993871;28;20401;-71
2021/12/20 07:22:18;;;;;;;8.63;2.15;;;;;;;;;;5001078;28;20080;-71
2021/12/20 07:24:44;;;;;;;11.05;2.90;;;;;;;;;;5047136;28;20037;-71
2021/12/20 07:27:10;;;;;;;8.80;2.33;;;5.70;99.90;;;;;;5041174;28;20137;-71
2021/12/20 07:29:37;;;;;;;7.65;2.08;;;;;;;;;;5033452;28;20093;-71
2021/12/20 07:32:03;;;;;;;8.63;2.38;;;;;;;;;;5023540;28;20044;-71
2021/12/20 07:34:29;;;;;;;8.75;1.85;;;;;;;;;;5030859;28;20095;-71
2021/12/20 07:36:56;;;;;;;12.48;3.03;;;;;;;;;;5049734;28;20511;-71
2021/12/20 07:39:22;;;;;;;7.35;1.63;;;;;;;;;;5023179;28;20037;-71
2021/12/20 07:41:49;;;;;;;11.45;2.97;;;5.60;99.90;;;;;;5042772;28;20037;-71
2021/12/20 07:44:15;;;;;;;11.40;2.88;;;;;;;;;;5023682;28;20184;-72
2021/12/20 07:46:41;;;;;;;8.20;1.73;;;;;;;;;;5012895;28;20042;-71
2021/12/20 07:49:07;;;;;;;13.88;2.83;;;;;;;;;;5027392;28;20037;-71
2021/12/20 07:51:33;;;;;;;10.30;2.95;;;;;;;;;;5009324;28;20037;-71
2021/12/20 07:53:59;;;;;;;11.70;3.00;;;;;;;;;;5018150;28;20404;-71
2021/12/20 07:56:25;;;;;;;9.13;2.10;;;5.30;99.90;;;;;;5006265;28;20128;-71
2021/12/20 07:58:51;;;;;;;9.70;2.40;;;;;;;;;;5010164;28;20050;-71
2021/12/20 08:01:17;;;;;;;9.73;2.55;;;5.30;99.90;;;;;;5007352;28;20047;-71
2021/12/20 08:03:43;;;;;;;9.02;2.30;;;;;;;;;;5018043;28;20514;-71
2021/12/20 08:06:09;;;;;;;8.43;2.78;;;5.00;99.90;;;;;;5051097;28;20041;-71
2021/12/20 08:08:35;;;;;;;8.90;1.90;;;;;;;;;;5025726;28;20045;-71
2021/12/20 08:11:01;;;;;;;9.10;2.45;;;;;;;;;;5038536;28;20068;-71
2021/12/20 08:13:27;;;;;;;8.85;2.33;;;;;;;;;;5031786;28;20132;-71
2021/12/20 08:15:53;;;;;;;12.27;2.30;;;;;;;;;;5008075;28;20388;-71
2021/12/20 08:18:20;;;;;;;8.18;2.45;;;;;;;;;;5051263;28;20044;-71
2021/12/20 08:20:46;;;;;;;8.52;2.22;;;4.90;99.90;;;;;;5017952;28;20415;-71
2021/12/20 08:23:12;;;;;;;8.35;2.38;;;;;;;;;;5013382;28;20514;-71
2021/12/20 08:25:39;;;;;;;10.32;2.55;;;;;;;;;;5025950;28;20049;-71
2021/12/20 08:28:06;;;;;;;10.57;2.38;;;;;;;;;;5016862;28;20049;-72
2021/12/20 08:30:32;;;;;;;7.47;2.65;;;;;;;;;;5005674;28;20518;-71
2021/12/20 08:32:58;;;;;;;9.73;3.10;;;;;;;;;;5030606;28;20461;-71
2021/12/20 08:35:24;;;;;;;9.25;2.20;;;;;;;;;;5013417;28;20079;-72
2021/12/20 08:37:50;;;;;;;10.32;2.38;;;;;;;;;;5001780;28;20092;-71
2021/12/20 08:40:16;;;;;;;10.93;3.15;;;4.20;99.90;;;;;;5009084;28;20095;-71
2021/12/20 08:42:43;;;;;;;12.48;2.70;;;;;;;;;;5013300;28;20038;-71
2021/12/20 08:45:10;;;;;;;10.25;2.88;;;4.10;99.90;;;;;;5017694;28;20110;-72
2021/12/20 08:47:36;;;;;;;13.65;2.60;;;4.30;99.90;;;;;;5021566;28;20075;-72
2021/12/20 08:50:04;;;;;;;12.23;3.75;;;;;;;;;;5012960;28;20053;-73
2021/12/20 08:52:30;;;;;;;11.85;3.78;;;;;;;;;;5012640;28;20109;-72
2021/12/20 08:54:56;;;;;;;9.98;2.90;;;;;;;;;;5020058;28;20117;-71
2021/12/20 08:57:22;;;;;;;10.10;2.97;;;;;;;;;;5024790;28;20199;-71
2021/12/20 08:59:48;;;;;;;13.18;3.95;;;;;;;;;;5019116;28;20045;-72
2021/12/20 09:02:14;;;;;;;12.60;3.92;;;;;;;;;;5003829;28;20040;-72
2021/12/20 09:04:40;;;;;;;9.35;2.80;;;;;;;;;;4988273;28;20404;-72
2021/12/20 09:07:08;;;;;;;13.50;3.08;;;;;;;;;;4989609;28;20132;-72
2021/12/20 09:09:37;;;;;;;9.10;2.97;;;4.30;99.90;;;;;;5011457;28;20120;-71
2021/12/20 09:12:05;;;;;;;9.13;3.58;;;4.20;99.90;;;;;;5012298;28;20073;-72
2021/12/20 09:14:33;;;;;;;14.60;5.40;;;;;;;;;;5006758;28;20069;-72
2021/12/20 09:16:59;;;;;;;15.00;5.22;;;;;;;;;;5017568;28;20054;-71
2021/12/20 09:19:25;;;;;;;15.90;7.57;;;;;;;;;;5005379;28;20121;-72
2021/12/20 09:21:52;;;;;;;12.10;5.70;;;;;;;;;;4984730;28;20682;-72
2021/12/20 09:24:18;;;;;;;10.05;4.13;;;;;;;;;;5023160;28;20170;-73
2021/12/20 09:26:43;;;;;;;10.63;4.00;;;4.80;99.90;;;;;;5006635;28;20133;-73
2021/12/20 09:29:09;;;;;;;9.48;3.85;;;4.90;99.90;;;;;;4980169;28;20037;-71
2021/12/20 09:31:35;;;;;;;12.68;4.75;;;4.90;99.90;;;;;;5020748;28;20033;-72
2021/12/20 09:34:01;;;;;;;11.90;5.75;;;;;;;;;;5009929;28;20052;-72
2021/12/20 09:36:32;;;;;;;17.80;5.82;;;;;;;;;;4997976;28;20042;-73
2021/12/20 09:38:59;;;;;;;14.77;6.15;;;;;;;;;;5008171;28;20048;-73
2021/12/20 09:44:08;;;;;;;15.07;6.05;;;;;;;;;;5006839;28;20317;-71
2021/12/20 09:46:34;;;;;;;11.27;5.63;;;;;;;;;;5000229;28;20566;-73
2021/12/20 09:49:00;;;;;;;13.18;5.65;;;5.50;99.90;;;;;;4996080;28;20046;-70
2021/12/20 09:51:27;;;;;;;12.50;6.03;;;;;;;;;;5008073;28;20088;-72
2021/12/20 09:53:55;;;;;;;10.85;3.92;;;;;;;;;;5001223;28;20411;-73
2021/12/20 09:56:23;;;;;;;9.88;4.05;;;5.40;99.90;;;;;;5000411;28;20548;-72
2021/12/20 09:58:52;;;;;;;13.35;4.35;;;5.60;99.90;;;;;;4984935;28;20099;-70
2021/12/20 10:01:20;;;;;;;12.00;3.92;;;5.50;99.90;;;;;;5039146;28;20041;-72
2021/12/20 10:03:46;;;;;;;9.98;3.20;;;;;;;;;;5020479;28;20694;-71
2021/12/20 10:06:13;;;;;;;10.43;2.50;;;;;;;;;;5015486;28;20126;-73
2021/12/20 10:08:49;;;;;;;8.20;2.17;;;;;;;;;;5009407;28;20124;-73
2021/12/20 10:11:18;;;;;;;9.18;3.50;;;;;;;;;;5004679;28;20041;-72
2021/12/20 10:13:44;;;;;;;12.43;2.42;;;5.70;99.90;;;;;;5009642;28;20032;-72
2021/12/20 10:16:20;;;;;;;9.32;2.42;;;;;;;;;;5037097;28;20040;-73
2021/12/20 10:18:46;;;;;;;9.25;2.97;;;;;;;;;;5034617;28;20041;-72
2021/12/20 10:21:12;;;;;;;8.25;1.75;;;5.80;99.90;;;;;;5039077;28;20124;-73
2021/12/20 10:23:40;;;;;;;9.30;2.92;;;5.70;99.90;;;;;;5016654;28;20075;-72
2021/12/20 10:26:15;;;;;;;14.43;4.10;;;;;;;;;;5013065;28;20048;-72
2021/12/20 10:28:42;;;;;;;6.75;2.47;;;;;;;;;;5015885;28;20041;-72
2021/12/20 10:31:18;;;;;;;10.57;2.60;;;;;;;;;;5022003;28;20055;-72
2021/12/20 10:33:54;;;;;;;9.35;2.67;;;;;;;;;;5022258;28;20529;-72
2021/12/20 10:36:21;;;;;;;14.23;3.20;;;;;;;;;;5015753;28;20041;-73
2021/12/20 10:38:49;;;;;;;11.23;2.78;;;;;;;;;;5033123;28;20110;-72
2021/12/20 10:41:16;;;;;;;11.10;3.28;;;;;;;;;;5039439;28;20044;-72
2021/12/20 10:44:03;;;;;;;18.02;3.70;;;;;;;;;;5012376;28;20087;-73
2021/12/20 10:46:36;;;;;;;12.93;3.45;;;;;;;;;;5024951;28;20645;-72
2021/12/20 10:49:04;;;;;;;15.82;3.58;;;;;;;;;;5018226;28;20225;-72
2021/12/20 10:51:39;;;;;;;13.43;3.33;;;5.70;99.90;;;;;;5038837;28;20057;-72
2021/12/20 10:54:10;;;;;;;10.05;2.40;;;;;;;;;;5008249;28;20116;-71
2021/12/20 10:56:38;;;;;;;14.60;4.45;;;;;;;;;;5013227;28;20042;-71
2021/12/20 10:59:11;;;;;;;15.07;4.72;;;;;;;;;;5028649;28;20044;-71
2021/12/20 11:04:13;;;;;;;18.63;4.38;;;;;;;;;;5000154;28;20049;-71
2021/12/20 11:06:45;;;;;;;;;;;6.30;99.90;;;;;;5029271;28;20048;-70
2021/12/20 11:09:15;;;;;;;19.27;7.03;;;;;;;;;;5023674;28;19923;-71
2021/12/20 11:11:41;;;;;;;20.67;6.07;;;;;;;;;;5000453;28;20041;-71
2021/12/20 11:14:09;;;;;;;17.13;5.50;;;;;;;;;;5030076;28;20038;-71
2021/12/20 11:16:35;;;;;;;20.92;10.15;;;;;;;;;;5027733;28;20041;-71
2021/12/20 11:19:06;;;;;;;21.45;9.18;;;6.30;99.90;;;;;;5038006;28;20388;-71
2021/12/20 11:21:37;;;;;;;23.50;8.65;;;6.70;99.90;;;;;;5007529;28;20037;-71
2021/12/20 11:24:03;;;;;;;25.33;13.60;;;;;;;;;;5009261;28;20038;-74
2021/12/20 11:26:29;;;;;;;21.42;9.57;;;;;;;;;;5008009;28;20457;-74
2021/12/20 11:28:55;;;;;;;16.02;7.63;;;6.60;99.90;;;;;;5009062;28;20069;-74
2021/12/20 11:31:21;;;;;;;17.08;4.97;;;;;;;;;;5008637;28;20048;-74
2021/12/20 11:33:48;;;;;;;19.83;5.43;;;;;;;;;;5001854;28;20041;-74
2021/12/20 11:36:13;;;;;;;14.80;5.43;;;6.30;99.90;;;;;;5004617;28;20041;-74
2021/12/20 11:38:40;;;;;;;17.33;4.30;;;;;;;;;;4990918;28;20045;-70
2021/12/20 11:41:06;;;;;;;14.70;4.85;;;;;;;;;;5014282;28;20057;-73
2021/12/20 11:43:33;;;;;;;15.93;5.55;;;6.50;99.90;;;;;;5027685;28;20116;-73
2021/12/20 11:45:59;;;;;;;20.30;5.13;;;;;;;;;;5009794;28;20116;-73
2021/12/20 11:48:28;;;;;;;20.50;5.40;;;;;;;;;;4995542;28;20044;-72
2021/12/20 11:50:58;;;;;;;16.50;4.40;;;;;;;;;;5001415;28;20586;-73
2021/12/20 11:53:24;;;;;;;14.07;3.50;;;;;;;;;;4998528;28;20116;-72
2021/12/20 11:55:52;;;;;;;16.08;4.88;;;7.10;99.90;;;;;;5003001;28;20073;-72
2021/12/20 11:58:20;;;;;;;16.77;4.40;;;;;;;;;;5018537;28;20506;-72
2021/12/20 12:00:50;;;;;;;18.60;4.30;;;7.20;99.90;;;;;;5004974;28;20496;-72
2021/12/20 12:03:27;;;;;;;12.57;3.92;;;;;;;;;;5006890;28;20456;-72
2021/12/20 12:05:57;;;;;;;12.57;3.53;;;;;;;;;;5004687;28;20052;-73
2021/12/20 12:08:43;;;;;;;18.45;4.88;;;;;;;;;;4992589;28;20096;-73
2021/12/20 12:11:09;;;;;;;13.35;3.38;;;;;;;;;;4994468;28;20626;-73
2021/12/20 12:13:47;;;;;;;11.95;4.20;;;8.10;99.90;;;;;;5010450;28;20099;-72
2021/12/20 12:16:31;;;;;;;15.70;4.68;;;;;;;;;;5011409;28;20104;-72
2021/12/20 12:19:01;;;;;;;15.10;3.33;;;;;;;;;;5005950;28;20457;-72
2021/12/20 12:21:33;;;;;;;21.63;5.28;;;8.10;99.90;;;;;;4993838;28;20056;-72
2021/12/20 12:24:03;;;;;;;22.65;4.10;;;8.60;99.90;;;;;;5029633;28;20127;-73
2021/12/20 12:26:34;;;;;;;13.45;3.53;;;;;;;;;;5028793;28;20037;-73
2021/12/20 12:29:01;;;;;;;16.48;4.07;;;;;;;;;;5024704;28;20072;-74
2021/12/20 12:31:28;;;;;;;17.38;4.03;;;;;;;;;;5034086;28;20059;-72
2021/12/20 12:34:10;;;;;;;15.70;3.75;;;;;;;;;;5028946;28;20052;-72
2021/12/20 12:36:41;;;;;;;15.40;3.47;;;9.20;99.90;;;;;;4993354;28;20050;-72
2021/12/20 12:39:10;;;;;;;11.50;2.85;;;;;;;;;;5026519;28;20041;-72
2021/12/20 12:41:44;;;;;;;11.98;3.08;;;;;;;;;;5050217;28;20507;-72
2021/12/20 12:44:20;;;;;;;19.00;4.00;;;;;;;;;;5047182;28;20047;-72
2021/12/20 12:46:48;;;;;;;13.80;3.65;;;;;;;;;;5033284;28;20084;-72
2021/12/20 12:49:23;;;;;;;12.70;3.90;;;;;;;;;;5031128;28;20128;-72
2021/12/20 12:51:50;;;;;;;16.10;3.15;;;10.90;99.90;;;;;;5032943;28;20044;-72
2021/12/20 12:54:35;;;;;;;13.45;3.50;;;;;;;;;;5026642;28;20055;-73
2021/12/20 12:57:10;;;;;;;12.48;3.22;;;;;;;;;;5030969;28;20126;-73
2021/12/20 12:59:39;;;;;;;10.95;3.50;;;;;;;;;;5043312;28;20037;-72
2021/12/20 13:02:13;;;;;;;17.95;3.75;;;;;;;;;;5048300;28;20033;-72
2021/12/20 13:04:52;;;;;;;12.23;3.33;;;;;;;;;;5026745;28;20045;-72
2021/12/20 13:07:20;;;;;;;10.73;3.33;;;;;;;;;;5032657;28;20076;-73
2021/12/20 13:09:47;;;;;;;20.48;3.95;;;12.20;99.90;;;;;;5008780;28;20590;-72
2021/12/20 13:12:21;;;;;;;21.35;8.73;;;12.10;99.90;;;;;;5026173;28;20041;-73
2021/12/20 13:15:09;;;;;;;11.02;3.08;;;14.20;99.90;;;;;;5023014;28;20168;-71
2021/12/20 13:17:36;;;;;;;8.57;2.50;;;;;;;;;;5013163;28;20037;-70
2021/12/20 13:20:32;;;;;;;12.63;3.28;;;;;;;;;;5010810;28;20120;-71
2021/12/20 13:23:09;;;;;;;14.70;4.05;;;;;;;;;;4996589;28;20175;-71
2021/12/20 13:25:41;;;;;;;12.07;3.20;;;;;;;;;;4972175;28;20049;-72
2021/12/20 13:28:28;;;;;;;11.68;2.63;;;15.50;99.90;;;;;;4994344;28;20041;-72
2021/12/20 13:30:56;;;;;;;12.63;3.53;;;;;;;;;;4997434;28;20029;-73
2021/12/20 13:33:23;;;;;;;13.70;3.15;;;;;;;;;;5027696;28;20038;-72
2021/12/20 13:35:52;;;;;;;12.98;3.42;;;14.40;99.90;;;;;;5009228;28;20041;-72
2021/12/20 13:38:25;;;;;;;12.68;3.05;;;14.00;99.90;;;;;;5027939;28;20052;-72
2021/12/20 13:40:53;;;;;;;10.90;2.95;;;13.70;99.90;;;;;;5023867;28;20097;-72
2021/12/20 13:43:29;;;;;;;13.45;3.28;;;;;;;;;;5030180;28;20609;-72
2021/12/20 13:46:15;;;;;;;16.88;3.50;;;13.20;99.90;;;;;;5031791;28;20040;-73
2021/12/20 13:48:56;;;;;;;11.07;3.22;;;12.50;99.90;;;;;;5012848;28;20042;-75
2021/12/20 13:51:29;;;;;;;11.98;3.00;;;;;;;;;;5003012;28;20132;-73
2021/12/20 13:53:56;;;;;;;11.48;2.42;;;;;;;;;;4982055;28;20048;-74
2021/12/20 13:56:21;;;;;;;15.02;3.78;;;11.50;99.90;;;;;;5007534;28;20041;-75
2021/12/20 13:58:49;;;;;;;12.50;3.13;;;11.80;99.90;;;;;;5017767;28;20453;-75
2021/12/20 14:01:16;;;;;;;11.57;3.25;;;11.60;99.90;;;;;;5020976;28;20113;-75
2021/12/20 14:03:42;;;;;;;15.02;4.05;;;11.30;99.90;;;;;;4999500;28;20445;-74
2021/12/20 14:06:09;;;;;;;14.27;4.00;;;11.50;99.90;;;;;;5028262;28;20033;-74
2021/12/20 14:08:35;;;;;;;12.80;3.25;;;11.20;99.90;;;;;;5024885;28;20037;-75
2021/12/20 14:11:01;;;;;;;13.13;3.45;;;11.40;99.90;;;;;;5026886;28;20045;-74
2021/12/20 14:13:28;;;;;;;12.10;3.55;;;;;;;;;;5030933;28;20187;-75
2021/12/20 14:16:02;;;;;;;12.18;3.38;;;10.90;99.90;;;;;;5015240;28;20037;-75
2021/12/20 14:18:38;;;;;;;16.30;4.10;;;;;;;;;;5016820;28;20037;-71
2021/12/20 14:21:09;;;;;;;12.27;3.33;;;10.60;99.90;;;;;;5043007;28;20076;-72
2021/12/20 14:23:42;;;;;;;11.07;3.03;;;10.50;99.90;;;;;;5042294;28;20459;-71
2021/12/20 14:26:29;;;;;;;13.82;3.33;;;;;;;;;;5031185;28;20041;-71
2021/12/20 14:29:02;;;;;;;15.40;3.70;;;10.10;99.90;;;;;;5031777;28;20130;-72